Dobrodošli na spletni strani vremenske postaje Senovo. Vse informacije so informativnega značaja, saj vremenska postaja ni del državne mreže meteoroloških postaj. AKTUALNIH OBVESTIL NI.


Posebna pozornost v zvezi z vremenskimi dogajanji ni potrebna.    Posebna pozornost v zvezi z vremenskimi dogajanji ni potrebna.

Pogled proti Armezu več informacij Pogled proti Armezu


Lisca več informacij Lisca


Radar strel več informacij blitzortung!


Radar padavin več informacij rain snow radar


Obiščite še:

Template documentation
and downloads

And another site



Weather Underground, zgodovina - Tekstovno

Dnevni povzetek za Januar 8, 2018 Enote:  Angleško    Metrično   Obe
« Predhodni Dan
Naslednji Dan »
Dnevni Tedenski Mesečni Letni Po meri
  Višja: Nižja: Povprečje:
Temperatura: TemperatureC °F 3.0 °F 6.3 °F
Točka rosišča: DewpointC °F 2.4 °F 5.8 °F
Vlažnost: Humidity % 95 % 96 %
Hitrost vetra: WindSpeedKMH mph 0.0 mph 0.4 mph
Sunki vetra: WindSpeedGustKMH mph - -
Veter:- - SSW
Zračni tlak: PressurehPa in 1021.9 in -
Padavine: 0.0 in    
Historical Graphs
 
 
Tabelarni podarki za Januar 8, 2018
Čas Temperatura Točka rosišča Zračni tlak Veter Hitrost vetra Sunki vetra Vlažnost Intenziteta padavin (urna)
TemperatureC °F DewpointC °F PressurehPa in Calm     Humidity % HourlyPrecipMM in
00:00 4.0 °F 3.3 °F 1022.9 in Calm     95 % 0.0 in
00:05 4.0 °F 3.3 °F 1022.9 in Calm     95 % 0.0 in
00:10 3.9 °F 3.3 °F 1022.9 in Calm     96 % 0.0 in
00:15 3.9 °F 3.3 °F 1022.9 in Calm     96 % 0.0 in
00:20 3.9 °F 3.3 °F 1022.9 in Calm     96 % 0.0 in
00:25 3.9 °F 3.3 °F 1022.9 in Calm     96 % 0.0 in
00:26 3.9 °F 3.3 °F 1022.9 in Calm     96 % 0.0 in
00:31 3.8 °F 3.2 °F 1022.9 in Calm     96 % 0.0 in
00:34 3.8 °F 3.2 °F 1022.9 in Calm     96 % 0.0 in
00:40 3.8 °F 3.2 °F 1022.9 in Calm     96 % 0.0 in
00:45 3.8 °F 3.2 °F 1021.9 in Calm     96 % 0.0 in
00:50 3.8 °F 3.2 °F 1021.9 in Calm     96 % 0.0 in
00:55 3.8 °F 3.2 °F 1021.9 in Calm     96 % 0.0 in
01:00 3.8 °F 3.2 °F 1022.9 in Calm     96 % 0.0 in
01:06 3.7 °F 3.1 °F 1022.9 in Calm     96 % 0.0 in
01:11 3.7 °F 3.1 °F 1022.9 in Calm     96 % 0.0 in
01:14 3.7 °F 3.1 °F 1021.9 in Calm     96 % 0.0 in
01:20 3.7 °F 3.1 °F 1021.9 in Calm     96 % 0.0 in
01:25 3.7 °F 3.1 °F 1021.9 in Calm     96 % 0.0 in
01:30 3.7 °F 3.1 °F 1021.9 in Calm     96 % 0.0 in
01:35 3.6 °F 3.0 °F 1021.9 in Calm     96 % 0.0 in
01:40 3.6 °F 3.0 °F 1021.9 in Calm     96 % 0.0 in
01:45 3.6 °F 3.0 °F 1021.9 in Calm     96 % 0.0 in
01:50 3.6 °F 3.0 °F 1021.9 in Calm     96 % 0.0 in
01:55 3.5 °F 2.9 °F 1021.9 in Calm     96 % 0.0 in
01:59 3.5 °F 2.9 °F 1022.9 in Calm     96 % 0.0 in
02:04 3.5 °F 2.9 °F 1022.9 in Calm     96 % 0.0 in
02:09 3.5 °F 2.9 °F 1022.9 in Calm     96 % 0.0 in
02:14 3.4 °F 2.8 °F 1023.9 in Calm     96 % 0.0 in
02:19 3.4 °F 2.8 °F 1023.9 in Calm     96 % 0.0 in
02:24 3.4 °F 2.8 °F 1023.9 in Calm     96 % 0.0 in
02:33 3.4 °F 2.8 °F 1022.9 in Calm     96 % 0.0 in
02:35 3.4 °F 2.8 °F 1022.9 in NNW 0.2 mph 4.0 mph 96 % 0.0 in
02:40 3.3 °F 2.7 °F 1022.9 in NNW 0.5 mph 4.0 mph 96 % 0.0 in
02:45 3.3 °F 2.7 °F 1022.9 in North 0.2 mph   96 % 0.0 in
02:50 3.3 °F 2.7 °F 1022.9 in Calm     96 % 0.0 in
02:55 3.3 °F 2.7 °F 1022.9 in Calm     96 % 0.0 in
02:59 3.3 °F 2.7 °F 1022.9 in Calm     96 % 0.0 in
03:04 3.3 °F 2.7 °F 1022.9 in Calm     96 % 0.0 in
03:10 3.3 °F 2.7 °F 1022.9 in Calm     96 % 0.0 in
03:15 3.2 °F 2.6 °F 1022.9 in Calm     96 % 0.0 in
03:20 3.2 °F 2.6 °F 1022.9 in Calm     96 % 0.0 in
03:25 3.2 °F 2.6 °F 1022.9 in Calm     96 % 0.0 in
03:27 3.2 °F 2.6 °F 1022.9 in Calm     96 % 0.0 in
03:32 3.2 °F 2.6 °F 1022.9 in Calm     96 % 0.0 in
03:35 3.2 °F 2.6 °F 1022.9 in Calm     96 % 0.0 in
03:41 3.2 °F 2.6 °F 1022.9 in Calm     96 % 0.0 in
03:46 3.2 °F 2.6 °F 1022.9 in Calm     96 % 0.0 in
03:51 3.2 °F 2.6 °F 1022.9 in Calm     96 % 0.0 in
03:54 3.1 °F 2.5 °F 1022.9 in Calm     96 % 0.0 in
03:59 3.1 °F 2.5 °F 1022.9 in Calm     96 % 0.0 in
04:10 3.0 °F 2.4 °F 1022.9 in Calm     96 % 0.0 in
04:16 3.0 °F 2.4 °F 1022.9 in Calm     96 % 0.0 in
04:21 3.1 °F 2.7 °F 1022.9 in Calm   2.1 mph 97 % 0.0 in
04:27 3.1 °F 2.7 °F 1022.9 in WSW 0.6 mph 4.0 mph 97 % 0.0 in
04:34 3.2 °F 2.8 °F 1022.9 in NNW 0.3 mph 2.1 mph 97 % 0.0 in
04:41 3.3 °F 2.9 °F 1022.9 in NW 0.2 mph 1.8 mph 97 % 0.0 in
04:49 3.3 °F 2.9 °F 1022.9 in Calm     97 % 0.0 in
05:05 3.4 °F 2.9 °F 1023.9 in Calm     97 % 0.0 in
05:14 3.6 °F 3.2 °F 1023.9 in Calm     97 % 0.0 in
05:19 3.6 °F 3.2 °F 1023.9 in Calm     97 % 0.0 in
05:25 3.7 °F 3.3 °F 1023.9 in Calm     97 % 0.0 in
05:32 3.8 °F 3.4 °F 1023.9 in Calm   1.4 mph 97 % 0.0 in
05:40 3.8 °F 3.4 °F 1023.9 in Calm     97 % 0.0 in
05:55 3.9 °F 3.4 °F 1023.9 in Calm     97 % 0.0 in
06:05 3.9 °F 3.4 °F 1023.9 in Calm     97 % 0.0 in
06:41 3.7 °F 3.3 °F 1023.9 in Calm     97 % 0.0 in
07:14 3.6 °F 3.2 °F 1024.9 in Calm     97 % 0.0 in
08:11 3.7 °F 3.4 °F 1024.9 in Calm     98 % 0.0 in
09:17 4.4 °F 4.1 °F 1023.9 in SW 0.8 mph 4.0 mph 98 % 0.0 in
09:58 5.1 °F 4.8 °F 1024.9 in Calm     98 % 0.0 in
10:07 5.3 °F 5.0 °F 1024.9 in Calm     98 % 0.0 in
10:13 5.4 °F 5.1 °F 1024.9 in Calm     98 % 0.0 in
10:18 5.4 °F 5.1 °F 1024.9 in Calm     98 % 0.0 in
10:23 5.4 °F 5.1 °F 1024.9 in Calm     98 % 0.0 in
10:24 5.5 °F 5.2 °F 1024.9 in Calm     98 % 0.0 in
10:30 5.4 °F 5.1 °F 1024.9 in Calm     98 % 0.0 in
10:35 5.5 °F 5.2 °F 1024.9 in Calm     98 % 0.0 in
10:40 5.6 °F 5.3 °F 1024.9 in Calm     98 % 0.0 in
10:42 5.6 °F 5.3 °F 1024.9 in Calm     98 % 0.0 in
10:43 5.6 °F 5.3 °F 1023.9 in Calm     98 % 0.0 in
10:49 5.8 °F 5.5 °F 1023.9 in Calm     98 % 0.0 in
10:55 5.9 °F 5.6 °F 1023.9 in Calm     98 % 0.0 in
11:00 6.1 °F 5.8 °F 1023.9 in SSW 1.1 mph 4.3 mph 98 % 0.0 in
11:05 6.3 °F 6.0 °F 1023.9 in SSW 2.1 mph 4.7 mph 98 % 0.0 in
11:10 6.4 °F 6.1 °F 1023.9 in SSW 1.4 mph 4.7 mph 98 % 0.0 in
11:11 6.4 °F 6.1 °F 1023.9 in SSW 1.4 mph 4.7 mph 98 % 0.0 in
11:16 6.4 °F 6.1 °F 1023.9 in South 0.3 mph 2.6 mph 98 % 0.0 in
11:21 6.5 °F 6.2 °F 1023.9 in East 0.3 mph 2.6 mph 98 % 0.0 in
11:26 6.6 °F 6.3 °F 1023.9 in East 0.5 mph 2.6 mph 98 % 0.0 in
11:27 6.7 °F 6.4 °F 1024.9 in East 0.5 mph 2.6 mph 98 % 0.0 in
11:32 6.9 °F 6.6 °F 1024.9 in ESE 0.5 mph 2.6 mph 98 % 0.0 in
11:37 7.1 °F 6.8 °F 1024.9 in ESE 0.3 mph 2.6 mph 98 % 0.0 in
11:39 7.1 °F 6.8 °F 1024.9 in SE 0.2 mph 1.8 mph 98 % 0.0 in
11:45 7.3 °F 7.0 °F 1024.9 in SE 0.2 mph 3.5 mph 98 % 0.0 in
11:50 7.5 °F 7.2 °F 1024.9 in East 0.2 mph 2.1 mph 98 % 0.0 in
11:56 7.7 °F 7.4 °F 1024.9 in SE 0.5 mph 4.0 mph 98 % 0.0 in
12:01 8.0 °F 7.7 °F 1024.9 in SE 2.1 mph 6.1 mph 98 % 0.0 in
12:06 8.2 °F 7.9 °F 1024.9 in SSE 3.2 mph 6.1 mph 98 % 0.0 in
12:11 8.3 °F 8.0 °F 1024.9 in SSE 2.7 mph 5.8 mph 98 % 0.0 in
12:17 8.4 °F 8.1 °F 1023.9 in SE 1.8 mph 4.3 mph 98 % 0.0 in
12:20 8.5 °F 8.2 °F 1023.9 in SE 1.3 mph 4.3 mph 98 % 0.0 in
12:25 8.7 °F 8.4 °F 1023.9 in SE 0.3 mph 4.0 mph 98 % 0.0 in
12:27 8.9 °F 8.6 °F 1023.9 in SSE 0.6 mph 4.0 mph 98 % 0.0 in
12:32 9.2 °F 8.9 °F 1023.9 in SSE 0.6 mph 4.0 mph 98 % 0.0 in
12:38 9.4 °F 9.1 °F 1023.9 in Calm   1.4 mph 98 % 0.0 in
12:43 9.7 °F 9.4 °F 1023.9 in South 1.1 mph 4.0 mph 98 % 0.0 in
12:46 9.9 °F 9.6 °F 1023.9 in South 1.8 mph 4.0 mph 98 % 0.0 in
12:51 10.1 °F 9.8 °F 1023.9 in SSE 1.8 mph 4.0 mph 98 % 0.0 in
12:56 10.2 °F 9.9 °F 1023.9 in ESE 0.3 mph 3.2 mph 98 % 0.0 in
12:57 10.3 °F 10.0 °F 1022.9 in ESE 0.3 mph 3.2 mph 98 % 0.0 in
13:02 10.6 °F 10.3 °F 1022.9 in South 0.2 mph 3.5 mph 98 % 0.0 in
13:08 10.7 °F 10.4 °F 1022.9 in South 0.5 mph 3.5 mph 98 % 0.0 in
13:18 10.8 °F 10.5 °F 1022.9 in South 1.6 mph 4.3 mph 98 % 0.0 in
13:24 10.8 °F 10.5 °F 1022.9 in South 2.4 mph 4.3 mph 98 % 0.0 in
13:29 10.9 °F 10.6 °F 1022.9 in SSE 2.4 mph 4.7 mph 98 % 0.0 in
13:31 10.9 °F 10.6 °F 1022.9 in SSE 2.4 mph 4.7 mph 98 % 0.0 in
13:36 10.9 °F 10.6 °F 1022.9 in SSE 2.7 mph 4.7 mph 98 % 0.0 in
13:41 11.0 °F 10.6 °F 1022.9 in SE 3.1 mph 5.0 mph 97 % 0.0 in
13:43 11.0 °F 10.6 °F 1021.9 in SE 3.2 mph 5.0 mph 97 % 0.0 in
13:49 11.0 °F 10.6 °F 1021.9 in SE 2.3 mph 5.0 mph 97 % 0.0 in
13:54 11.1 °F 10.7 °F 1021.9 in SE 0.3 mph 4.0 mph 97 % 0.0 in
13:57 11.1 °F 10.7 °F 1021.9 in SSE 1.0 mph 4.7 mph 97 % 0.0 in
14:02 11.1 °F 10.7 °F 1021.9 in SSE 2.6 mph 5.8 mph 97 % 0.0 in
14:08 11.3 °F 10.8 °F 1021.9 in SSE 3.4 mph 5.8 mph 97 % 0.0 in
14:12 11.4 °F 10.9 °F 1023.9 in SSE 3.1 mph 5.8 mph 97 % 0.0 in
14:18 11.6 °F 11.2 °F 1023.9 in SSE 1.3 mph 5.0 mph 97 % 0.0 in
14:23 11.7 °F 11.2 °F 1023.9 in South 0.3 mph 3.2 mph 97 % 0.0 in
14:29 11.9 °F 11.4 °F 1023.9 in South 1.3 mph 4.7 mph 97 % 0.0 in
14:34 11.9 °F 11.4 °F 1023.9 in South 1.8 mph 4.3 mph 97 % 0.0 in
14:39 12.0 °F 11.6 °F 1023.9 in SSE 1.3 mph 4.3 mph 97 % 0.0 in
14:45 12.2 °F 11.7 °F 1022.9 in South 1.8 mph 5.5 mph 97 % 0.0 in
14:50 12.2 °F 11.7 °F 1022.9 in South 2.3 mph 5.5 mph 97 % 0.0 in
14:56 12.2 °F 11.7 °F 1022.9 in South 2.7 mph 6.1 mph 97 % 0.0 in
15:00 12.1 °F 11.6 °F 1022.9 in South 2.3 mph 6.1 mph 97 % 0.0 in
15:06 11.7 °F 11.2 °F 1022.9 in South 0.3 mph 2.6 mph 97 % 0.0 in
15:11 11.5 °F 10.9 °F 1022.9 in WSW 0.5 mph 4.7 mph 96 % 0.0 in
15:17 11.1 °F 10.5 °F 1021.9 in West 1.6 mph 5.0 mph 96 % 0.0 in
15:23 10.8 °F 10.2 °F 1021.9 in WSW 0.8 mph 4.3 mph 96 % 0.0 in
15:29 10.4 °F 9.8 °F 1021.9 in SSW 1.4 mph 4.3 mph 96 % 0.0 in
15:35 10.0 °F 9.2 °F 1021.9 in SW 1.6 mph 4.3 mph 95 % 0.0 in
15:38 9.9 °F 9.1 °F 1021.9 in WSW 1.0 mph 4.3 mph 95 % 0.0 in
15:43 9.7 °F 8.9 °F 1021.9 in NW 2.4 mph 5.5 mph 95 % 0.0 in
15:50 9.4 °F 8.7 °F 1021.9 in NW 1.3 mph 5.5 mph 95 % 0.0 in
15:55 9.3 °F 8.6 °F 1021.9 in West 0.5 mph 4.3 mph 95 % 0.0 in
15:58 9.2 °F 8.4 °F 1021.9 in West 0.8 mph 4.3 mph 95 % 0.0 in
16:04 8.9 °F 8.2 °F 1021.9 in WNW 1.0 mph 5.0 mph 95 % 0.0 in
16:14 8.6 °F 7.8 °F 1022.9 in WNW 2.6 mph 6.1 mph 95 % 0.0 in
16:19 8.4 °F 7.7 °F 1022.9 in NW 0.8 mph 4.0 mph 95 % 0.0 in
16:25 8.2 °F 7.4 °F 1022.9 in NW 0.5 mph 4.0 mph 95 % 0.0 in
16:31 7.9 °F 7.2 °F 1023.9 in Calm     95 % 0.0 in
16:37 7.7 °F 6.9 °F 1023.9 in Calm     95 % 0.0 in
16:43 7.5 °F 6.8 °F 1023.9 in Calm     95 % 0.0 in
16:48 7.4 °F 6.7 °F 1023.9 in Calm     95 % 0.0 in
16:50 7.4 °F 6.7 °F 1023.9 in Calm     95 % 0.0 in
16:55 7.2 °F 6.4 °F 1023.9 in Calm     95 % 0.0 in
16:57 7.1 °F 6.3 °F 1023.9 in Calm     95 % 0.0 in
17:03 7.0 °F 6.3 °F 1023.9 in Calm     95 % 0.0 in
17:09 6.7 °F 5.9 °F 1023.9 in Calm     95 % 0.0 in
17:15 6.5 °F 5.8 °F 1023.9 in Calm     95 % 0.0 in
17:23 6.2 °F 5.4 °F 1023.9 in Calm     95 % 0.0 in
17:29 6.1 °F 5.3 °F 1023.9 in NW 0.3 mph 3.2 mph 95 % 0.0 in
17:33 6.1 °F 5.3 °F 1023.9 in NW 0.3 mph 3.2 mph 95 % 0.0 in
17:36 6.0 °F 5.3 °F 1023.9 in Calm     95 % 0.0 in
17:37 6.0 °F 5.3 °F 1023.9 in Calm     95 % 0.0 in
17:42 5.8 °F 5.1 °F 1023.9 in Calm     95 % 0.0 in
17:43 5.8 °F 5.1 °F 1023.9 in Calm     95 % 0.0 in
17:44 5.8 °F 5.1 °F 1023.9 in Calm     95 % 0.0 in
17:47 5.8 °F 5.1 °F 1023.9 in NW 0.2 mph 4.0 mph 95 % 0.0 in
17:53 5.7 °F 4.9 °F 1023.9 in NW 0.6 mph 4.0 mph 95 % 0.0 in
17:55 5.7 °F 4.9 °F 1023.9 in NW 0.6 mph 4.0 mph 95 % 0.0 in
18:00 5.7 °F 4.9 °F 1023.9 in Calm     95 % 0.0 in
18:05 5.8 °F 5.1 °F 1023.9 in Calm     95 % 0.0 in
18:11 5.8 °F 5.1 °F 1023.9 in Calm     95 % 0.0 in
18:16 5.9 °F 5.3 °F 1023.9 in Calm     96 % 0.0 in
18:21 5.9 °F 5.3 °F 1023.9 in Calm     96 % 0.0 in
18:26 6.0 °F 5.3 °F 1023.9 in Calm     95 % 0.0 in
18:31 6.1 °F 5.5 °F 1023.9 in Calm     96 % 0.0 in
18:34 6.1 °F 5.5 °F 1023.9 in Calm     96 % 0.0 in
18:40 6.2 °F 5.6 °F 1023.9 in Calm     96 % 0.0 in
18:45 6.3 °F 5.7 °F 1024.9 in West 0.5 mph 4.0 mph 96 % 0.0 in
18:50 6.4 °F 5.8 °F 1024.9 in West 0.5 mph 4.0 mph 96 % 0.0 in
18:54 6.5 °F 5.9 °F 1024.9 in Calm     96 % 0.0 in
18:55 6.5 °F 5.9 °F 1024.9 in Calm     96 % 0.0 in
19:00 6.5 °F 5.9 °F 1023.9 in Calm     96 % 0.0 in
19:05 6.6 °F 6.0 °F 1023.9 in Calm     96 % 0.0 in
19:10 6.6 °F 6.0 °F 1023.9 in Calm     96 % 0.0 in
19:13 6.6 °F 6.0 °F 1023.9 in Calm     96 % 0.0 in
19:18 6.8 °F 6.2 °F 1023.9 in Calm     96 % 0.0 in
19:20 6.8 °F 6.2 °F 1023.9 in Calm     96 % 0.0 in
19:25 6.9 °F 6.3 °F 1023.9 in West 0.3 mph 3.5 mph 96 % 0.0 in
19:30 6.8 °F 6.3 °F 1024.9 in West 0.3 mph 3.5 mph 97 % 0.0 in
19:32 6.8 °F 6.3 °F 1024.9 in North 0.2 mph   97 % 0.0 in
19:37 6.9 °F 6.4 °F 1024.9 in Calm     97 % 0.0 in
19:42 6.9 °F 6.4 °F 1024.9 in Calm     97 % 0.0 in
19:47 7.0 °F 6.4 °F 1024.9 in Calm     96 % 0.0 in
19:50 7.0 °F 6.4 °F 1024.9 in Calm     96 % 0.0 in
19:56 7.0 °F 6.4 °F 1024.9 in Calm     96 % 0.0 in
20:01 6.9 °F 6.4 °F 1024.9 in Calm     97 % 0.0 in
20:06 7.0 °F 6.4 °F 1024.9 in Calm     96 % 0.0 in
20:08 7.0 °F 6.4 °F 1024.9 in Calm     96 % 0.0 in
20:11 6.9 °F 6.4 °F 1024.9 in Calm     97 % 0.0 in
20:16 6.9 °F 6.4 °F 1024.9 in Calm     97 % 0.0 in
20:18 6.9 °F 6.4 °F 1024.9 in Calm     97 % 0.0 in
20:20 6.8 °F 6.3 °F 1024.9 in Calm     97 % 0.0 in
20:25 6.8 °F 6.3 °F 1024.9 in Calm     97 % 0.0 in
20:30 6.8 °F 6.3 °F 1024.9 in Calm     97 % 0.0 in
20:35 6.8 °F 6.3 °F 1024.9 in Calm     97 % 0.0 in
20:39 6.8 °F 6.3 °F 1024.9 in Calm     97 % 0.0 in
20:44 6.7 °F 6.3 °F 1024.9 in Calm     97 % 0.0 in
20:46 6.7 °F 6.3 °F 1024.9 in Calm     97 % 0.0 in
20:51 6.7 °F 6.3 °F 1024.9 in Calm     97 % 0.0 in
20:56 6.7 °F 6.3 °F 1024.9 in Calm     97 % 0.0 in
21:01 6.7 °F 6.3 °F 1024.9 in Calm     97 % 0.0 in
21:13 6.7 °F 6.3 °F 1024.9 in Calm     97 % 0.0 in
21:19 6.6 °F 6.2 °F 1024.9 in Calm     97 % 0.0 in
21:27 6.7 °F 6.3 °F 1024.9 in Calm     97 % 0.0 in
21:38 6.6 °F 6.2 °F 1024.9 in Calm     97 % 0.0 in
21:50 6.5 °F 6.1 °F 1024.9 in Calm     97 % 0.0 in
22:03 6.5 °F 6.1 °F 1024.9 in Calm     97 % 0.0 in
22:12 6.4 °F 5.9 °F 1024.9 in Calm     97 % 0.0 in
22:19 6.4 °F 5.9 °F 1024.9 in Calm     97 % 0.0 in
22:24 6.3 °F 5.8 °F 1024.9 in Calm     97 % 0.0 in
22:29 6.3 °F 5.8 °F 1024.9 in Calm     97 % 0.0 in
22:37 6.2 °F 5.8 °F 1024.9 in Calm     97 % 0.0 in
22:43 6.1 °F 5.7 °F 1024.9 in Calm   2.1 mph 97 % 0.0 in
22:48 6.0 °F 5.6 °F 1024.9 in Calm   2.1 mph 97 % 0.0 in
22:53 5.8 °F 5.3 °F 1024.9 in Calm     97 % 0.0 in
22:59 5.7 °F 5.3 °F 1024.9 in Calm     97 % 0.0 in
23:05 5.6 °F 5.2 °F 1024.9 in Calm     97 % 0.0 in
23:10 5.5 °F 5.1 °F 1024.9 in Calm     97 % 0.0 in
23:16 5.4 °F 4.9 °F 1024.9 in Calm     97 % 0.0 in
23:24 5.3 °F 4.9 °F 1024.9 in Calm     97 % 0.0 in
23:25 5.2 °F 4.8 °F 1024.9 in Calm     97 % 0.0 in
23:30 5.2 °F 4.8 °F 1024.9 in Calm     97 % 0.0 in
23:35 5.2 °F 4.8 °F 1024.9 in Calm     97 % 0.0 in
23:37 5.2 °F 4.8 °F 1024.9 in Calm     97 % 0.0 in
23:42 5.3 °F 4.9 °F 1024.9 in Calm     97 % 0.0 in
23:48 5.3 °F 4.9 °F 1024.9 in Calm     97 % 0.0 in
23:49 5.3 °F 4.9 °F 1024.9 in Calm     97 % 0.0 in
23:53 5.3 °F 4.9 °F 1024.9 in Calm     97 % 0.0 in
23:54 5.3 °F 4.9 °F 1024.9 in Calm     97 % 0.0 in
23:55 5.3 °F 4.9 °F 1024.9 in Calm     97 % 0.0 in
23:56 5.3 °F 4.9 °F 1024.9 in Calm     97 % 0.0 in
23:57 5.3 °F 4.9 °F 1024.9 in Calm     97 % 0.0 in
23:58 5.3 °F 4.9 °F 1024.9 in Calm     97 % 0.0 in
Vremenska postaja Senovo
Podatki zbrani iz Weather Underground - 2.75 mb

Script developed by  Jim McMurry - jmcmurry@mwt.net Adapted for the template by  Wim van der Kuil - Leuven-Template.eu

Vremenski podatki so objavljeni na:

European Weather Network

WeatherCloud

Weather Underground

AWEKAS

HAMweather, WeatherForYou, PWS Weather

MapView

Geostik

Slovenia weather network

Oprema, ki se uporablja:

Vremenski program
Cumulus

Vremenski server
Asus

Cumulus

Asus